Time;durP1;ratioP1;P1;durP2;ratioP2;P2;SDS_P1;SDS_P2;PMS_P1;PMS_P2;Temp;Humidity;BMP_temperature;BMP_pressure;BME280_temperature;BME280_humidity;BME280_pressure;Samples;Min_cycle;Max_cycle;Signal;HPM_P1;HPM_P2
2021/03/25 00:02:21;;;;;;;6.80;4.35;;;3.60;63.70;;;;;;5042911;28;20425;-58
2021/03/25 00:04:46;;;;;;;5.82;4.22;;;3.60;63.50;;;;;;5034358;28;20035;-60
2021/03/25 00:07:12;;;;;;;5.78;3.72;;;3.50;63.20;;;;;;5034132;28;20033;-60
2021/03/25 00:09:41;;;;;;;5.50;4.20;;;3.50;63.10;;;;;;5048272;28;20024;-60
2021/03/25 00:12:07;;;;;;;5.50;4.13;;;3.50;63.10;;;;;;5046484;28;20029;-60
2021/03/25 00:14:33;;;;;;;5.47;3.72;;;3.50;63.30;;;;;;5054069;28;20017;-61
2021/03/25 00:16:59;;;;;;;5.60;3.70;;;3.40;63.20;;;;;;5053844;28;20043;-61
2021/03/25 00:19:25;;;;;;;6.03;4.55;;;3.40;63.30;;;;;;5054492;28;20017;-61
2021/03/25 00:21:50;;;;;;;5.95;3.70;;;3.40;63.20;;;;;;5054127;28;20029;-60
2021/03/25 00:24:18;;;;;;;7.53;3.88;;;3.40;63.20;;;;;;5050539;28;20465;-61
2021/03/25 00:26:44;;;;;;;7.07;4.10;;;3.40;63.20;;;;;;5034343;28;20421;-60
2021/03/25 00:29:11;;;;;;;5.60;3.70;;;3.40;63.00;;;;;;5046315;28;20083;-60
2021/03/25 00:31:38;;;;;;;5.63;4.15;;;3.40;63.00;;;;;;5049066;28;20036;-60
2021/03/25 00:34:04;;;;;;;4.82;3.90;;;3.40;62.70;;;;;;5034235;28;20493;-59
2021/03/25 00:36:30;;;;;;;5.18;3.88;;;3.40;62.60;;;;;;5037477;28;20078;-60
2021/03/25 00:38:58;;;;;;;6.60;4.25;;;3.40;62.60;;;;;;5054086;28;20508;-60
2021/03/25 00:41:24;;;;;;;5.15;3.75;;;3.30;62.30;;;;;;5053683;28;20040;-60
2021/03/25 00:43:50;;;;;;;4.40;3.55;;;3.30;62.50;;;;;;5054087;28;20413;-61
2021/03/25 00:46:15;;;;;;;4.28;3.47;;;3.30;62.30;;;;;;5053154;28;20036;-61
2021/03/25 00:48:41;;;;;;;5.93;4.20;;;3.30;62.10;;;;;;5053636;28;20040;-59
2021/03/25 00:51:07;;;;;;;6.28;3.75;;;3.30;62.00;;;;;;5053813;28;20453;-61
2021/03/25 00:53:36;;;;;;;5.20;3.47;;;3.20;61.60;;;;;;5052339;28;20408;-61
2021/03/25 00:56:05;;;;;;;5.20;3.92;;;3.20;61.80;;;;;;5053799;28;20055;-61
2021/03/25 00:58:30;;;;;;;5.40;3.92;;;3.20;61.90;;;;;;5053719;28;20108;-61
2021/03/25 01:00:59;;;;;;;4.95;3.80;;;3.20;62.30;;;;;;5053611;28;20426;-60
2021/03/25 01:03:26;;;;;;;4.93;3.90;;;3.20;62.20;;;;;;5051328;28;20531;-59
2021/03/25 01:05:53;;;;;;;5.80;3.22;;;3.20;62.10;;;;;;5053912;28;20037;-60
2021/03/25 01:08:19;;;;;;;6.95;3.95;;;3.20;62.00;;;;;;5053590;28;20025;-60
2021/03/25 01:10:53;;;;;;;4.97;3.60;;;3.20;61.60;;;;;;5048792;28;20100;-59
2021/03/25 01:13:21;;;;;;;4.22;3.47;;;3.20;61.60;;;;;;5033724;28;20071;-60
2021/03/25 01:15:47;;;;;;;5.53;3.60;;;3.20;61.60;;;;;;5033851;28;20028;-60
2021/03/25 01:18:13;;;;;;;4.82;3.45;;;3.20;62.00;;;;;;5033794;28;20021;-59
2021/03/25 01:20:41;;;;;;;5.20;3.85;;;3.20;62.30;;;;;;5033687;28;20022;-59
2021/03/25 01:23:08;;;;;;;6.13;3.67;;;3.20;62.30;;;;;;5042350;28;20029;-58
2021/03/25 01:25:36;;;;;;;5.72;3.50;;;3.20;62.50;;;;;;5052600;28;20040;-60
2021/03/25 01:28:04;;;;;;;4.65;4.03;;;3.20;62.50;;;;;;5053353;28;20070;-58
2021/03/25 01:30:35;;;;;;;6.47;4.18;;;3.20;62.60;;;;;;5056075;28;20071;-59
2021/03/25 01:33:01;;;;;;;5.45;3.90;;;3.20;62.70;;;;;;5057218;28;20407;-60
2021/03/25 01:35:28;;;;;;;6.88;4.35;;;3.20;62.70;;;;;;5057045;28;20099;-60
2021/03/25 01:37:54;;;;;;;6.05;3.65;;;3.20;62.90;;;;;;5057096;28;20132;-60
2021/03/25 01:40:36;;;;;;;6.20;4.22;;;3.10;62.60;;;;;;5047400;28;20049;-60
2021/03/25 01:43:13;;;;;;;5.75;4.32;;;3.10;62.80;;;;;;5037476;28;20354;-60
2021/03/25 01:46:17;;;;;;;4.70;3.78;;;3.10;63.10;;;;;;5037099;28;20074;-60
2021/03/25 01:48:46;;;;;;;4.70;3.63;;;3.10;62.90;;;;;;5030053;28;20029;-60
2021/03/25 01:51:42;;;;;;;5.80;3.55;;;3.10;63.00;;;;;;5054781;28;20025;-60
2021/03/25 01:54:35;;;;;;;5.32;3.88;;;3.10;63.00;;;;;;5055186;28;20381;-60
2021/03/25 01:57:32;;;;;;;5.80;4.05;;;3.10;63.00;;;;;;5054543;28;20048;-60
2021/03/25 02:00:16;;;;;;;5.38;3.95;;;3.00;63.10;;;;;;5036660;28;20071;-60
2021/03/25 02:02:46;;;;;;;5.53;4.00;;;3.00;63.10;;;;;;5036363;28;20095;-60
2021/03/25 02:05:51;;;;;;;7.50;4.38;;;3.00;63.20;;;;;;5037006;28;20076;-60
2021/03/25 02:08:36;;;;;;;4.95;3.40;;;3.00;63.00;;;;;;5028987;28;20041;-59
2021/03/25 02:11:27;;;;;;;3.92;3.53;;;3.00;63.10;;;;;;5036153;28;20034;-59
2021/03/25 02:14:13;;;;;;;6.88;3.95;;;3.00;63.20;;;;;;5041025;28;20358;-60
2021/03/25 02:17:10;;;;;;;5.68;3.95;;;3.00;63.30;;;;;;5036503;28;20424;-60
2021/03/25 02:19:53;;;;;;;5.20;3.65;;;3.00;63.10;;;;;;5035932;28;20038;-59
2021/03/25 02:22:36;;;;;;;4.93;3.53;;;3.00;62.90;;;;;;5048883;28;20036;-60
2021/03/25 02:25:15;;;;;;;4.90;3.60;;;3.00;62.80;;;;;;5056089;28;20021;-60
2021/03/25 02:28:00;;;;;;;4.50;3.67;;;3.00;62.90;;;;;;5056258;28;20036;-60
2021/03/25 02:30:37;;;;;;;6.57;3.53;;;3.00;63.50;;;;;;5055399;28;20044;-60
2021/03/25 02:33:05;;;;;;;5.05;3.65;;;3.00;62.90;;;;;;5055326;28;20036;-60
2021/03/25 02:35:41;;;;;;;5.15;3.45;;;3.00;63.00;;;;;;5056115;28;20167;-60
2021/03/25 02:38:33;;;;;;;6.22;4.03;;;3.10;63.20;;;;;;5055979;28;20017;-59
2021/03/25 02:41:04;;;;;;;5.40;3.78;;;3.10;62.80;;;;;;5055725;28;20365;-59
2021/03/25 02:43:42;;;;;;;;;;;3.10;63.10;;;;;;5056484;28;20036;-60
2021/03/25 02:46:18;;;;;;;4.63;3.58;;;3.00;62.80;;;;;;5056192;28;20396;-60
2021/03/25 02:48:48;;;;;;;4.85;3.63;;;3.00;62.90;;;;;;5050465;28;20022;-62
2021/03/25 02:51:19;;;;;;;5.32;3.45;;;3.00;62.90;;;;;;5039368;28;20029;-59
2021/03/25 02:53:46;;;;;;;4.68;3.83;;;3.00;62.90;;;;;;5055241;28;20029;-59
2021/03/25 02:56:32;;;;;;;5.20;3.47;;;2.90;62.80;;;;;;5055500;28;20029;-60
2021/03/25 02:59:08;;;;;;;4.88;3.85;;;2.90;63.10;;;;;;5055654;28;20040;-60
2021/03/25 03:01:39;;;;;;;3.75;3.25;;;2.90;63.10;;;;;;5055305;28;20119;-60
2021/03/25 03:04:17;;;;;;;6.45;3.78;;;2.90;63.30;;;;;;5054531;28;20052;-60
2021/03/25 03:06:48;;;;;;;5.35;3.88;;;2.90;63.00;;;;;;5055789;28;20470;-60
2021/03/25 03:09:20;;;;;;;7.03;4.07;;;2.90;63.20;;;;;;5038097;28;20079;-60
2021/03/25 03:11:47;;;;;;;;;;;2.90;63.10;;;;;;5035848;28;20108;-60
2021/03/25 03:14:24;;;;;;;5.18;3.72;;;2.80;63.00;;;;;;5035248;28;20373;-60
2021/03/25 03:16:59;;;;;;;5.28;3.85;;;2.80;63.00;;;;;;5035407;28;20041;-59
2021/03/25 03:19:30;;;;;;;5.38;3.95;;;2.80;63.00;;;;;;5035557;28;20029;-60
2021/03/25 03:21:59;;;;;;;5.28;3.78;;;2.80;63.30;;;;;;5044131;28;20449;-60
2021/03/25 03:24:25;;;;;;;5.43;3.90;;;2.80;63.20;;;;;;5055174;28;20100;-60
2021/03/25 03:27:02;;;;;;;5.88;4.25;;;2.80;63.30;;;;;;5055199;28;20017;-60
2021/03/25 03:29:31;;;;;;;5.65;3.90;;;2.70;63.10;;;;;;5054303;28;20021;-59
2021/03/25 03:32:22;;;;;;;6.63;3.72;;;2.70;63.10;;;;;;5054550;28;20025;-59
2021/03/25 03:34:50;;;;;;;5.20;4.10;;;2.70;63.10;;;;;;5054998;28;20032;-60
2021/03/25 03:37:34;;;;;;;4.90;3.50;;;2.70;63.00;;;;;;5054723;28;20048;-58
2021/03/25 03:40:05;;;;;;;5.05;3.20;;;2.70;63.40;;;;;;5054983;28;20078;-60
2021/03/25 03:42:32;;;;;;;5.22;3.40;;;2.70;63.20;;;;;;5054613;28;20033;-59
2021/03/25 03:44:59;;;;;;;4.80;3.72;;;2.70;63.40;;;;;;5054619;28;20111;-60
2021/03/25 03:47:29;;;;;;;3.88;3.40;;;2.70;63.30;;;;;;5054751;28;20029;-60
2021/03/25 03:50:17;;;;;;;4.90;3.80;;;2.70;63.40;;;;;;5037838;28;20025;-59
2021/03/25 03:52:47;;;;;;;5.82;3.92;;;2.60;63.40;;;;;;5033971;28;20037;-60
2021/03/25 03:55:14;;;;;;;5.38;3.85;;;2.60;63.40;;;;;;5034573;28;20108;-59
2021/03/25 03:58:04;;;;;;;5.85;3.83;;;2.70;63.40;;;;;;5034160;28;20101;-60
2021/03/25 04:00:43;;;;;;;4.93;3.67;;;2.70;63.40;;;;;;5051580;28;20021;-60
2021/03/25 04:03:21;;;;;;;6.93;3.78;;;2.70;64.20;;;;;;5054031;28;20069;-59
2021/03/25 04:05:56;;;;;;;5.93;3.83;;;2.60;63.60;;;;;;5054330;28;20025;-60
2021/03/25 04:08:27;;;;;;;5.38;3.50;;;2.60;63.80;;;;;;5054465;28;20049;-59
2021/03/25 04:11:02;;;;;;;4.50;3.40;;;2.60;63.80;;;;;;5048557;28;20504;-59
2021/03/25 04:13:43;;;;;;;5.45;3.83;;;2.60;63.60;;;;;;5037750;28;20035;-59
2021/03/25 04:16:09;;;;;;;4.38;3.42;;;2.60;63.80;;;;;;5034318;28;20496;-58
2021/03/25 04:18:53;;;;;;;4.55;3.75;;;2.70;63.80;;;;;;5037559;28;20021;-58
2021/03/25 04:21:45;;;;;;;6.03;4.07;;;2.70;63.70;;;;;;5053741;28;20017;-59
2021/03/25 04:24:13;;;;;;;;;;;2.70;63.70;;;;;;5052588;28;20473;-60
2021/03/25 04:27:04;;;;;;;5.45;3.80;;;2.60;63.70;;;;;;5053791;28;19912;-59
2021/03/25 04:29:39;;;;;;;6.03;4.00;;;2.70;63.80;;;;;;5052549;28;20028;-60
2021/03/25 04:32:05;;;;;;;5.95;3.97;;;2.70;63.80;;;;;;5053627;28;20030;-59
2021/03/25 04:34:32;;;;;;;4.05;3.35;;;2.70;63.90;;;;;;5053739;28;20035;-60
2021/03/25 04:36:58;;;;;;;4.78;3.70;;;2.80;63.90;;;;;;5052402;28;20021;-60
2021/03/25 04:39:25;;;;;;;4.18;3.38;;;2.80;63.80;;;;;;5053194;28;20028;-60
2021/03/25 04:41:52;;;;;;;4.65;3.42;;;2.90;63.80;;;;;;5053760;28;20017;-59
2021/03/25 04:44:38;;;;;;;5.18;3.47;;;2.90;63.80;;;;;;5053866;28;20052;-60
2021/03/25 04:47:24;;;;;;;7.05;4.15;;;2.90;63.70;;;;;;5053337;28;20082;-60
2021/03/25 04:49:54;;;;;;;5.00;3.58;;;2.90;63.60;;;;;;5030445;28;20045;-60
2021/03/25 04:52:23;;;;;;;6.07;3.70;;;2.90;63.50;;;;;;5034219;28;20025;-60
2021/03/25 04:54:49;;;;;;;5.63;3.55;;;3.00;63.70;;;;;;5033901;28;20037;-60
2021/03/25 04:57:40;;;;;;;8.20;4.15;;;3.00;63.60;;;;;;5033645;28;20033;-60
2021/03/25 05:00:13;;;;;;;6.40;3.87;;;3.10;63.50;;;;;;5034120;28;20036;-60
2021/03/25 05:02:39;;;;;;;4.95;3.88;;;3.20;63.60;;;;;;5033727;28;20049;-60
2021/03/25 05:05:06;;;;;;;5.97;3.70;;;3.20;63.40;;;;;;5037376;28;20108;-59
2021/03/25 05:07:35;;;;;;;6.65;3.80;;;3.30;63.50;;;;;;5037699;28;20036;-58
2021/03/25 05:10:03;;;;;;;6.28;3.72;;;3.30;63.20;;;;;;5054173;28;20024;-59
2021/03/25 05:12:30;;;;;;;6.00;3.65;;;3.30;63.10;;;;;;5057810;28;20044;-58
2021/03/25 05:15:10;;;;;;;4.90;3.72;;;3.40;63.10;;;;;;5057654;28;20017;-60
2021/03/25 05:17:43;;;;;;;5.68;3.83;;;3.40;63.00;;;;;;5056275;28;20040;-60
2021/03/25 05:20:29;;;;;;;5.63;3.92;;;3.40;63.00;;;;;;5038279;28;20053;-60
2021/03/25 05:23:14;;;;;;;3.92;3.25;;;3.50;63.10;;;;;;5036286;28;20029;-60
2021/03/25 05:25:51;;;;;;;4.95;3.63;;;3.50;62.90;;;;;;5037404;28;20025;-58
2021/03/25 05:28:28;;;;;;;4.72;3.50;;;3.60;62.70;;;;;;5037393;28;20064;-59
2021/03/25 05:30:54;;;;;;;5.25;3.65;;;3.70;62.40;;;;;;5037594;28;20030;-60
2021/03/25 05:33:25;;;;;;;4.65;3.58;;;3.70;62.10;;;;;;5037406;28;20037;-60
2021/03/25 05:36:00;;;;;;;8.43;4.18;;;3.80;61.80;;;;;;5037198;28;20104;-60
2021/03/25 05:38:27;;;;;;;6.55;3.78;;;3.80;61.90;;;;;;5039794;28;20143;-60
2021/03/25 05:40:57;;;;;;;7.47;4.68;;;3.70;61.70;;;;;;5056436;28;20031;-58
2021/03/25 05:43:22;;;;;;;5.47;4.50;;;3.80;61.80;;;;;;5057393;28;20035;-60
2021/03/25 05:45:57;;;;;;;8.80;4.35;;;3.70;61.80;;;;;;5056882;28;20103;-60
2021/03/25 05:48:47;;;;;;;5.40;3.70;;;3.70;62.50;;;;;;5053141;28;20061;-59
2021/03/25 05:51:53;;;;;;;5.88;3.55;;;3.70;62.00;;;;;;5041903;28;20057;-60
2021/03/25 05:54:37;;;;;;;5.07;3.88;;;3.70;61.90;;;;;;5022457;28;20098;-59
2021/03/25 05:57:12;;;;;;;5.43;3.95;;;3.80;62.10;;;;;;5045452;28;20442;-60
2021/03/25 05:59:52;;;;;;;5.80;3.83;;;3.80;62.00;;;;;;5046641;28;20025;-60
2021/03/25 06:02:29;;;;;;;7.32;3.65;;;3.90;61.90;;;;;;5049536;28;20053;-59
2021/03/25 06:04:55;;;;;;;5.35;3.65;;;3.90;61.80;;;;;;5036763;28;20385;-59
2021/03/25 06:08:05;;;;;;;4.88;3.75;;;4.00;61.80;;;;;;5035413;28;20022;-60
2021/03/25 06:10:52;;;;;;;5.28;3.25;;;4.00;61.70;;;;;;4998009;28;20021;-60
2021/03/25 06:13:29;;;;;;;4.80;3.53;;;4.10;61.90;;;;;;5009806;28;20036;-60
2021/03/25 06:16:13;;;;;;;6.50;3.97;;;4.20;61.60;;;;;;5034570;28;20041;-60
2021/03/25 06:18:57;;;;;;;6.20;3.78;;;4.20;61.50;;;;;;5046419;28;20484;-59
2021/03/25 06:22:00;;;;;;;5.95;4.00;;;4.20;61.50;;;;;;5036887;28;20343;-60
2021/03/25 06:24:37;;;;;;;6.35;3.97;;;4.30;61.50;;;;;;5040849;28;20025;-60
2021/03/25 06:27:40;;;;;;;5.53;4.00;;;4.40;61.50;;;;;;5040287;28;20029;-60
2021/03/25 06:30:13;;;;;;;5.43;3.78;;;4.40;61.30;;;;;;5041018;28;20033;-61
2021/03/25 06:32:52;;;;;;;6.15;4.07;;;4.40;61.30;;;;;;5051575;28;20530;-60
2021/03/25 06:35:33;;;;;;;6.15;3.90;;;4.50;61.00;;;;;;5038359;28;20045;-60
2021/03/25 06:38:10;;;;;;;6.03;4.05;;;4.50;60.90;;;;;;5049734;28;20040;-60
2021/03/25 06:41:02;;;;;;;6.28;4.25;;;4.50;60.90;;;;;;5055763;28;20127;-60
2021/03/25 06:43:40;;;;;;;4.53;3.40;;;4.50;60.90;;;;;;5038389;28;20030;-60
2021/03/25 06:46:33;;;;;;;5.00;3.78;;;4.50;61.10;;;;;;5041268;28;20036;-62
2021/03/25 06:49:04;;;;;;;5.78;4.05;;;4.50;60.90;;;;;;5042511;28;20025;-60
2021/03/25 06:51:32;;;;;;;6.25;3.60;;;4.50;61.20;;;;;;5043006;28;20033;-60
2021/03/25 06:54:23;;;;;;;6.03;3.95;;;4.50;61.20;;;;;;5045204;28;20120;-61
2021/03/25 06:56:52;;;;;;;5.35;3.92;;;4.50;61.00;;;;;;5047491;28;20033;-61
2021/03/25 06:59:28;;;;;;;5.63;3.55;;;4.50;61.10;;;;;;5039768;28;20070;-61
2021/03/25 07:02:20;;;;;;;5.15;3.20;;;4.50;61.10;;;;;;5038483;28;20052;-60
2021/03/25 07:04:49;;;;;;;4.20;3.58;;;4.50;61.00;;;;;;5035555;28;20041;-60
2021/03/25 07:07:39;;;;;;;7.60;4.10;;;4.50;61.30;;;;;;5030253;28;20029;-60
2021/03/25 07:10:07;;;;;;;4.88;3.60;;;4.50;61.40;;;;;;5033986;28;20032;-60
2021/03/25 07:12:36;;;;;;;6.22;4.10;;;4.50;61.40;;;;;;5035752;28;20033;-60
2021/03/25 07:15:05;;;;;;;5.35;4.38;;;4.50;61.40;;;;;;5033923;28;20611;-60
2021/03/25 07:17:43;;;;;;;5.43;3.95;;;4.60;61.60;;;;;;5036173;28;20120;-60
2021/03/25 07:20:29;;;;;;;5.63;3.55;;;4.50;61.30;;;;;;5033174;28;20029;-60
2021/03/25 07:23:10;;;;;;;5.70;4.07;;;4.60;61.40;;;;;;5034738;28;20294;-60
2021/03/25 07:25:42;;;;;;;6.72;3.97;;;4.60;61.40;;;;;;5033658;28;20033;-60
2021/03/25 07:28:15;;;;;;;5.38;3.90;;;4.60;61.70;;;;;;5034019;28;20087;-60
2021/03/25 07:31:03;;;;;;;5.63;3.97;;;4.60;61.50;;;;;;5037662;28;20068;-59
2021/03/25 07:33:37;;;;;;;5.97;4.40;;;4.60;61.60;;;;;;5035083;28;20056;-60
2021/03/25 07:36:10;;;;;;;7.93;4.00;;;4.70;62.60;;;;;;5040153;28;20025;-61
2021/03/25 07:38:40;;;;;;;5.47;4.20;;;4.70;61.90;;;;;;5034738;28;20049;-60
2021/03/25 07:41:21;;;;;;;6.05;4.28;;;4.70;61.90;;;;;;5034409;28;20131;-59
2021/03/25 07:44:28;;;;;;;5.75;4.13;;;4.70;62.40;;;;;;5032962;28;20431;-60
2021/03/25 07:46:57;;;;;;;5.38;4.15;;;4.70;61.90;;;;;;5031242;28;20029;-60
2021/03/25 07:49:34;;;;;;;6.70;4.47;;;4.70;62.00;;;;;;5050458;28;20369;-60
2021/03/25 07:52:06;;;;;;;5.43;4.00;;;4.70;62.00;;;;;;5019656;28;20380;-64
2021/03/25 07:54:36;;;;;;;5.53;4.00;;;4.70;61.70;;;;;;5018082;28;20417;-58
2021/03/25 07:57:05;;;;;;;5.70;3.85;;;4.70;61.80;;;;;;5022887;28;20037;-60
2021/03/25 07:59:44;;;;;;;5.70;3.95;;;4.70;61.70;;;;;;5021559;28;20108;-60
2021/03/25 08:02:35;;;;;;;5.22;3.85;;;4.70;61.80;;;;;;5020215;28;20060;-60
2021/03/25 08:05:19;;;;;;;5.93;4.50;;;4.70;61.90;;;;;;5022762;28;20026;-60
2021/03/25 08:07:47;;;;;;;5.13;4.03;;;4.70;62.00;;;;;;5017333;28;20037;-62
2021/03/25 08:10:34;;;;;;;6.10;3.80;;;4.70;62.10;;;;;;5016668;28;20599;-61
2021/03/25 08:13:25;;;;;;;5.85;3.88;;;4.70;62.10;;;;;;5019334;28;20666;-62
2021/03/25 08:15:53;;;;;;;5.43;3.80;;;4.70;62.10;;;;;;5018256;28;20688;-61
2021/03/25 08:18:35;;;;;;;5.22;3.60;;;4.70;62.10;;;;;;5003182;28;20037;-61
2021/03/25 08:21:24;;;;;;;;;;;4.80;62.30;;;;;;5014268;28;20119;-62
2021/03/25 08:24:02;;;;;;;5.45;3.60;;;4.70;62.10;;;;;;5021520;28;22629;-61
2021/03/25 08:27:12;;;;;;;4.30;3.90;;;4.80;62.50;;;;;;5035886;28;20042;-61
2021/03/25 08:30:07;;;;;;;4.93;3.60;;;4.80;62.30;;;;;;5015004;28;20033;-61
2021/03/25 08:32:51;;;;;;;5.35;3.72;;;4.80;62.40;;;;;;5011853;28;21594;-61
2021/03/25 08:35:29;;;;;;;5.30;4.22;;;4.80;62.50;;;;;;5020317;28;20047;-61
2021/03/25 08:38:17;;;;;;;6.20;4.20;;;4.90;62.50;;;;;;5015060;28;20032;-60
2021/03/25 08:41:01;;;;;;;5.55;4.03;;;4.90;62.40;;;;;;5016948;28;20555;-62
2021/03/25 08:43:57;;;;;;;5.10;4.20;;;4.90;62.60;;;;;;5014788;28;20026;-61
2021/03/25 08:46:36;;;;;;;5.45;4.00;;;5.00;62.70;;;;;;5028461;28;20037;-61
2021/03/25 08:49:32;;;;;;;6.30;4.30;;;5.00;62.60;;;;;;5017182;28;20100;-62
2021/03/25 08:51:59;;;;;;;5.22;3.92;;;5.10;62.50;;;;;;5011009;28;20496;-60
2021/03/25 08:54:33;;;;;;;7.15;4.68;;;5.10;62.40;;;;;;5008588;28;20064;-62
2021/03/25 08:57:07;;;;;;;6.47;3.80;;;5.10;62.40;;;;;;5007778;28;20026;-62
2021/03/25 08:59:37;;;;;;;6.60;3.97;;;5.10;62.30;;;;;;5008040;28;20125;-63
2021/03/25 09:02:28;;;;;;;5.75;4.22;;;5.20;62.30;;;;;;5000945;28;20120;-62
2021/03/25 09:05:07;;;;;;;4.85;4.07;;;5.20;62.40;;;;;;5005895;28;20540;-62
2021/03/25 09:07:34;;;;;;;5.13;4.13;;;5.20;62.40;;;;;;5006613;28;20041;-62
2021/03/25 09:10:25;;;;;;;5.32;3.78;;;5.20;62.30;;;;;;5002686;28;20026;-62
2021/03/25 09:12:52;;;;;;;4.63;3.33;;;5.30;62.10;;;;;;5005633;28;20520;-62
2021/03/25 09:15:20;;;;;;;5.82;4.00;;;5.30;62.10;;;;;;5008560;28;20049;-62
2021/03/25 09:18:03;;;;;;;4.82;3.47;;;5.30;61.90;;;;;;4999952;28;20033;-63
2021/03/25 09:20:37;;;;;;;4.97;3.80;;;5.30;62.30;;;;;;5002200;28;20083;-63
2021/03/25 09:23:31;;;;;;;5.13;3.70;;;5.40;62.20;;;;;;4996995;28;20449;-61
2021/03/25 09:25:58;;;;;;;4.65;3.80;;;5.40;61.80;;;;;;4993064;28;20034;-60
2021/03/25 09:28:44;;;;;;;5.93;4.07;;;5.40;61.80;;;;;;4995153;28;20070;-61
2021/03/25 09:31:15;;;;;;;3.78;3.03;;;5.40;61.90;;;;;;5005661;28;20039;-62
2021/03/25 09:33:51;;;;;;;5.90;3.55;;;5.40;62.10;;;;;;5001494;28;20022;-61
2021/03/25 09:36:16;;;;;;;5.13;3.58;;;5.50;62.40;;;;;;4999768;28;20084;-61
2021/03/25 09:38:44;;;;;;;5.65;3.88;;;5.60;62.60;;;;;;5007253;28;20466;-60
2021/03/25 09:41:36;;;;;;;4.55;3.72;;;5.60;62.30;;;;;;5004667;28;20040;-60
2021/03/25 09:44:08;;;;;;;5.72;4.00;;;5.70;62.30;;;;;;5005278;28;20124;-61
2021/03/25 09:46:52;;;;;;;5.57;3.78;;;5.70;62.80;;;;;;4997650;28;20512;-61
2021/03/25 09:49:46;;;;;;;6.20;4.10;;;5.70;62.20;;;;;;4991061;28;20219;-61
2021/03/25 09:52:20;;;;;;;5.22;3.92;;;5.80;62.30;;;;;;4996165;28;20069;-61
2021/03/25 09:55:16;;;;;;;5.75;4.05;;;5.80;62.90;;;;;;5004387;28;20026;-61
2021/03/25 09:57:43;;;;;;;4.65;3.60;;;5.90;62.00;;;;;;5004327;28;20025;-59
2021/03/25 10:00:24;;;;;;;5.28;4.03;;;5.90;61.90;;;;;;4998249;28;20037;-60
2021/03/25 10:02:56;;;;;;;4.90;3.85;;;5.90;62.00;;;;;;5000487;28;20117;-60
2021/03/25 10:05:30;;;;;;;6.07;3.78;;;5.90;61.90;;;;;;4992965;28;20054;-61
2021/03/25 10:08:20;;;;;;;3.90;3.50;;;5.90;62.00;;;;;;4999703;28;20029;-61
2021/03/25 10:10:47;;;;;;;6.25;4.38;;;6.00;62.00;;;;;;4997198;28;20486;-61
2021/03/25 10:13:35;;;;;;;4.30;3.50;;;6.00;62.10;;;;;;4994652;28;20155;-60
2021/03/25 10:16:35;;;;;;;4.63;3.55;;;6.00;62.10;;;;;;5001963;28;20022;-60
2021/03/25 10:19:11;;;;;;;4.78;3.42;;;6.10;62.10;;;;;;4996474;28;20037;-62
2021/03/25 10:21:56;;;;;;;6.15;3.92;;;6.20;62.10;;;;;;5003438;28;20049;-61
2021/03/25 10:24:31;;;;;;;5.78;3.53;;;6.30;62.20;;;;;;4968566;28;21736;-58
2021/03/25 10:27:04;;;;;;;4.90;3.85;;;6.40;62.20;;;;;;5002884;28;20033;-61
2021/03/25 10:29:36;;;;;;;5.57;4.20;;;6.40;62.00;;;;;;4998641;28;20407;-61
2021/03/25 10:32:04;;;;;;;5.95;3.65;;;6.50;61.70;;;;;;5004734;28;20463;-61
2021/03/25 10:34:37;;;;;;;4.97;3.72;;;6.60;61.70;;;;;;5012443;28;20030;-62
2021/03/25 10:37:06;;;;;;;5.85;3.90;;;6.60;61.70;;;;;;4992412;28;20480;-61
2021/03/25 10:39:38;;;;;;;4.97;3.60;;;6.70;61.80;;;;;;4999724;28;20072;-60
2021/03/25 10:42:28;;;;;;;6.28;3.45;;;6.80;61.80;;;;;;4994831;28;20065;-58
2021/03/25 10:44:54;;;;;;;4.55;3.40;;;6.80;61.80;;;;;;4988428;28;20684;-60
2021/03/25 10:47:23;;;;;;;5.63;3.85;;;6.90;61.80;;;;;;4996500;28;20188;-61
2021/03/25 10:49:52;;;;;;;4.03;3.38;;;6.90;61.60;;;;;;4985285;28;20665;-61
2021/03/25 10:52:39;;;;;;;4.68;3.60;;;7.00;61.60;;;;;;4990484;28;20112;-60
2021/03/25 10:55:28;;;;;;;5.05;3.83;;;7.10;61.60;;;;;;4996735;28;20026;-60
2021/03/25 10:57:55;;;;;;;5.38;4.00;;;7.10;61.60;;;;;;4998883;28;20025;-60
2021/03/25 11:00:29;;;;;;;3.88;3.38;;;7.10;61.70;;;;;;4997136;28;20034;-60
2021/03/25 11:02:56;;;;;;;4.65;3.50;;;7.20;61.60;;;;;;4997923;28;20446;-59
2021/03/25 11:05:27;;;;;;;4.43;3.47;;;7.30;61.60;;;;;;4998915;28;20037;-61
2021/03/25 11:07:59;;;;;;;5.03;4.20;;;7.40;61.60;;;;;;4990120;28;20041;-62
2021/03/25 11:10:31;;;;;;;4.88;3.60;;;7.50;61.60;;;;;;4988572;28;20152;-61
2021/03/25 11:13:03;;;;;;;4.35;3.17;;;7.50;61.50;;;;;;4999979;28;20025;-61
2021/03/25 11:15:56;;;;;;;4.82;3.40;;;7.60;61.60;;;;;;5000267;28;20653;-60
2021/03/25 11:18:31;;;;;;;5.38;3.30;;;7.60;61.50;;;;;;4993776;28;20454;-60
2021/03/25 11:20:57;;;;;;;3.72;3.17;;;7.70;61.70;;;;;;4973498;28;20623;-61
2021/03/25 11:23:27;;;;;;;4.13;3.30;;;7.70;61.70;;;;;;5000501;28;20132;-62
2021/03/25 11:25:55;;;;;;;3.65;3.00;;;7.80;61.50;;;;;;4997705;28;20124;-64
2021/03/25 11:28:28;;;;;;;4.10;3.13;;;7.80;61.40;;;;;;5000176;28;20084;-63
2021/03/25 11:31:25;;;;;;;4.18;3.00;;;7.90;61.60;;;;;;4997218;28;20025;-63
2021/03/25 11:33:53;;;;;;;3.75;3.20;;;7.90;61.40;;;;;;4990311;28;20025;-61
2021/03/25 11:36:43;;;;;;;3.45;3.05;;;8.00;61.00;;;;;;4987397;28;20116;-62
2021/03/25 11:39:22;;;;;;;4.50;3.20;;;8.00;60.90;;;;;;4999253;28;20112;-61
2021/03/25 11:41:50;;;;;;;4.18;3.10;;;8.10;61.00;;;;;;5000856;28;20113;-64
2021/03/25 11:44:40;;;;;;;4.20;3.60;;;8.10;61.20;;;;;;5002998;28;20041;-63
2021/03/25 11:47:39;;;;;;;3.65;3.17;;;8.10;60.60;;;;;;4998503;28;20386;-60
2021/03/25 11:50:27;;;;;;;3.58;3.00;;;8.10;60.80;;;;;;4999011;28;20042;-61
2021/03/25 11:52:56;;;;;;;4.75;3.33;;;8.10;61.20;;;;;;4998250;28;20040;-60
2021/03/25 11:55:24;;;;;;;4.18;3.05;;;8.20;61.10;;;;;;5001595;28;20048;-59
2021/03/25 11:57:51;;;;;;;4.50;3.30;;;8.20;61.20;;;;;;5004191;28;20087;-60
2021/03/25 12:00:28;;;;;;;5.38;3.50;;;8.20;60.80;;;;;;4998729;28;20076;-61
2021/03/25 12:02:55;;;;;;;5.20;3.42;;;8.20;60.70;;;;;;4994506;28;20152;-61
2021/03/25 12:05:27;;;;;;;4.35;3.00;;;8.30;60.90;;;;;;4994652;28;20053;-60
2021/03/25 12:08:18;;;;;;;4.55;3.40;;;8.30;61.00;;;;;;4995654;28;20029;-60
2021/03/25 12:10:45;;;;;;;4.55;3.78;;;8.30;61.00;;;;;;4994058;28;20369;-60
2021/03/25 12:13:12;;;;;;;4.40;3.28;;;8.30;61.20;;;;;;4998565;28;20026;-63
2021/03/25 12:15:38;;;;;;;5.03;3.35;;;8.40;61.30;;;;;;4995554;28;20380;-60
2021/03/25 12:18:29;;;;;;;5.43;3.30;;;8.40;60.90;;;;;;4999046;28;20029;-61
2021/03/25 12:20:58;;;;;;;3.67;3.10;;;8.50;60.70;;;;;;4993795;28;20404;-60
2021/03/25 12:23:29;;;;;;;3.33;3.00;;;8.50;60.80;;;;;;4998256;28;20030;-60
2021/03/25 12:25:55;;;;;;;;;;;8.50;60.90;;;;;;4989618;28;20164;-60
2021/03/25 12:28:22;;;;;;;3.85;2.83;;;8.50;60.80;;;;;;4992471;28;20280;-60
2021/03/25 12:30:49;;;;;;;3.55;3.00;;;8.60;61.00;;;;;;4987793;28;20528;-60
2021/03/25 12:33:18;;;;;;;4.18;3.00;;;8.70;61.00;;;;;;4994039;28;20533;-60
2021/03/25 12:35:44;;;;;;;3.67;3.13;;;8.70;61.00;;;;;;4996269;28;20499;-59
2021/03/25 12:38:10;;;;;;;3.90;2.95;;;8.70;60.80;;;;;;5002571;28;20037;-62
2021/03/25 12:40:36;;;;;;;4.78;3.00;;;8.70;60.80;;;;;;5003335;28;20393;-60
2021/03/25 12:43:01;;;;;;;4.38;3.35;;;8.80;60.70;;;;;;5005503;28;20125;-60
2021/03/25 12:45:35;;;;;;;4.32;3.00;;;8.80;60.60;;;;;;5004487;28;20041;-60
2021/03/25 12:48:01;;;;;;;3.50;3.03;;;8.80;60.70;;;;;;5005095;28;20057;-60
2021/03/25 12:50:28;;;;;;;4.35;3.17;;;8.80;61.50;;;;;;5002815;28;20033;-60
2021/03/25 12:52:54;;;;;;;4.10;3.05;;;8.80;61.10;;;;;;5002798;28;20030;-60
2021/03/25 12:55:21;;;;;;;4.60;3.42;;;8.70;60.90;;;;;;4998247;28;20034;-62
2021/03/25 12:57:49;;;;;;;5.38;3.42;;;8.70;61.10;;;;;;5006342;28;20037;-61
2021/03/25 13:00:41;;;;;;;3.70;3.20;;;8.70;61.30;;;;;;5001237;28;20444;-61
2021/03/25 13:03:07;;;;;;;4.30;3.40;;;8.70;61.30;;;;;;4997824;28;20053;-61
2021/03/25 13:05:34;;;;;;;3.42;3.13;;;8.60;61.30;;;;;;5000738;28;20121;-60
2021/03/25 13:08:00;;;;;;;4.32;3.20;;;8.60;61.40;;;;;;4999539;28;20077;-61
2021/03/25 13:10:28;;;;;;;4.28;3.42;;;8.60;61.50;;;;;;5002158;28;22703;-61
2021/03/25 13:12:58;;;;;;;4.45;3.38;;;8.60;61.50;;;;;;5000537;28;20034;-61
2021/03/25 13:15:25;;;;;;;4.32;3.80;;;8.60;61.50;;;;;;4998485;28;20073;-61
2021/03/25 13:17:51;;;;;;;4.35;3.28;;;8.60;61.40;;;;;;4992811;28;20109;-61
2021/03/25 13:20:20;;;;;;;4.38;3.13;;;8.60;61.30;;;;;;5000359;28;20033;-61
2021/03/25 13:22:46;;;;;;;3.78;3.22;;;8.70;61.30;;;;;;5000635;28;20041;-61
2021/03/25 13:25:20;;;;;;;3.47;2.83;;;8.70;61.10;;;;;;5000953;28;20038;-61
2021/03/25 13:27:46;;;;;;;4.20;3.15;;;8.70;61.30;;;;;;4996016;28;20030;-61
2021/03/25 13:30:12;;;;;;;3.22;2.90;;;8.70;60.90;;;;;;4998708;28;20555;-61
2021/03/25 13:32:38;;;;;;;5.05;3.17;;;8.70;60.90;;;;;;4992328;28;20048;-61
2021/03/25 13:35:05;;;;;;;3.53;2.88;;;8.70;60.80;;;;;;5000894;28;20030;-61
2021/03/25 13:37:30;;;;;;;3.92;3.15;;;8.70;60.50;;;;;;5000906;28;20117;-62
2021/03/25 13:39:57;;;;;;;3.53;3.03;;;8.70;60.30;;;;;;5000124;28;20026;-61
2021/03/25 13:42:22;;;;;;;4.50;3.15;;;8.60;60.30;;;;;;5004322;28;20034;-61